createdAt,value
2018-03-04T00:00:38.947Z,999
2018-03-04T00:01:41.380Z,999.1
2018-03-04T00:02:43.766Z,999.1
2018-03-04T00:03:46.481Z,999
2018-03-04T00:04:48.899Z,999.1
2018-03-04T00:05:51.312Z,999
2018-03-04T00:06:53.726Z,999
2018-03-04T00:07:56.146Z,999.1
2018-03-04T00:08:58.548Z,999.2
2018-03-04T00:10:00.959Z,999.2
2018-03-04T00:11:03.699Z,999.2
2018-03-04T00:12:06.383Z,999.1
2018-03-04T00:13:08.798Z,999.1
2018-03-04T00:14:11.495Z,999.1
2018-03-04T00:15:13.912Z,999.1
2018-03-04T00:16:16.324Z,999.1
2018-03-04T00:17:18.743Z,999.1
2018-03-04T00:18:21.140Z,999.2
2018-03-04T00:19:23.559Z,999.2
2018-03-04T00:20:25.964Z,999.2
2018-03-04T00:21:28.382Z,999.1
2018-03-04T00:22:30.804Z,999.1
2018-03-04T00:23:33.496Z,999.2
2018-03-04T00:24:35.915Z,999.2
2018-03-04T00:25:38.328Z,999.2
2018-03-04T00:26:40.738Z,999.2
2018-03-04T00:27:43.199Z,999.3
2018-03-04T00:28:45.863Z,999.2
2018-03-04T00:29:48.264Z,999.3
2018-03-04T00:30:50.686Z,999.2
2018-03-04T00:31:53.394Z,999.2
2018-03-04T00:32:56.091Z,999.3
2018-03-04T00:33:58.508Z,999.2
2018-03-04T00:35:00.935Z,999.2
2018-03-04T00:36:03.624Z,999.2
2018-03-04T00:37:06.037Z,999.2
2018-03-04T00:38:08.437Z,999.2
2018-03-04T00:39:10.852Z,999.2
2018-03-04T00:40:13.268Z,999.2
2018-03-04T00:41:15.678Z,999.2
2018-03-04T00:42:18.077Z,999.3
2018-03-04T00:43:20.778Z,999.2
2018-03-04T00:44:23.195Z,999.2
2018-03-04T00:45:25.614Z,999.3
2018-03-04T00:46:28.012Z,999.2
2018-03-04T00:47:30.422Z,999.2
2018-03-04T00:48:32.829Z,999.2
2018-03-04T00:49:35.257Z,999.2
2018-03-04T00:50:37.665Z,999.2
2018-03-04T00:51:40.076Z,999.2
2018-03-04T00:52:42.479Z,999.2
2018-03-04T00:53:45.183Z,999.1
2018-03-04T00:54:47.590Z,999.1
2018-03-04T00:55:50.006Z,999.1
2018-03-04T00:56:52.412Z,999.1
2018-03-04T00:57:54.819Z,999.1
2018-03-04T00:58:57.516Z,999.1
2018-03-04T01:00:00.227Z,999.1
2018-03-04T01:01:02.931Z,999.1
2018-03-04T01:02:05.644Z,999
2018-03-04T01:03:08.059Z,999.1
2018-03-04T01:04:10.468Z,999.1
2018-03-04T01:05:12.874Z,999.1
2018-03-04T01:06:15.293Z,999
2018-03-04T01:07:17.705Z,999
2018-03-04T01:08:20.104Z,999.1
2018-03-04T01:09:22.525Z,999.1
2018-03-04T01:10:24.933Z,999
2018-03-04T01:11:27.347Z,999.1
2018-03-04T01:12:29.760Z,999.1
2018-03-04T01:13:32.177Z,999.1
2018-03-04T01:14:34.591Z,999.2
2018-03-04T01:15:37.004Z,999.1
2018-03-04T01:16:39.415Z,999.1
2018-03-04T01:17:41.815Z,999.1
2018-03-04T01:18:44.239Z,999.1
2018-03-04T01:19:46.655Z,999.1
2018-03-04T01:20:49.351Z,999.1
2018-03-04T01:21:51.756Z,999
2018-03-04T01:22:54.162Z,999.1
2018-03-04T01:23:56.849Z,999.1
2018-03-04T01:24:59.583Z,999.1
2018-03-04T01:26:01.990Z,999.1
2018-03-04T01:27:04.394Z,999.1
2018-03-04T01:28:06.814Z,999.1
2018-03-04T01:29:09.516Z,999
2018-03-04T01:30:11.938Z,999
2018-03-04T01:31:14.639Z,999.1
2018-03-04T01:32:17.614Z,999.1
2018-03-04T01:33:20.024Z,999
2018-03-04T01:34:22.439Z,999
2018-03-04T01:35:24.853Z,999
2018-03-04T01:36:27.254Z,999.1
2018-03-04T01:37:29.961Z,999.1
2018-03-04T01:38:32.673Z,999
2018-03-04T01:39:35.080Z,999.1
2018-03-04T01:40:38.094Z,999.1
2018-03-04T01:41:40.817Z,999
2018-03-04T01:42:43.224Z,999
2018-03-04T01:43:45.649Z,999
2018-03-04T01:44:48.061Z,999
2018-03-04T01:45:50.456Z,999
2018-03-04T01:46:52.869Z,999
2018-03-04T01:47:55.277Z,999
2018-03-04T01:48:57.695Z,998.9
2018-03-04T01:50:00.114Z,999
2018-03-04T01:51:02.510Z,998.9
2018-03-04T01:52:05.203Z,999
2018-03-04T01:53:07.614Z,999
2018-03-04T01:54:10.021Z,998.9
2018-03-04T01:55:12.436Z,998.9
2018-03-04T01:56:15.135Z,998.9
2018-03-04T01:57:17.546Z,998.9
2018-03-04T01:58:19.972Z,998.9
2018-03-04T01:59:22.391Z,998.9
2018-03-04T02:00:24.812Z,998.9
2018-03-04T02:01:27.522Z,998.8
2018-03-04T02:02:29.927Z,998.8
2018-03-04T02:03:32.333Z,998.9
2018-03-04T02:04:34.894Z,998.8
2018-03-04T02:05:37.312Z,998.8
2018-03-04T02:06:39.718Z,998.8
2018-03-04T02:07:42.132Z,998.8
2018-03-04T02:08:44.538Z,998.8
2018-03-04T02:09:46.958Z,998.8
2018-03-04T02:10:49.355Z,998.8
2018-03-04T02:11:51.766Z,998.8
2018-03-04T02:12:54.176Z,998.8
2018-03-04T02:13:56.587Z,998.8
2018-03-04T02:14:58.996Z,998.7
2018-03-04T02:16:01.986Z,998.8
2018-03-04T02:17:04.382Z,998.8
2018-03-04T02:18:06.795Z,998.7
2018-03-04T02:19:09.210Z,998.7
2018-03-04T02:20:11.913Z,998.8
2018-03-04T02:21:14.626Z,998.7
2018-03-04T02:22:17.351Z,998.8
2018-03-04T02:23:19.747Z,998.7
2018-03-04T02:24:22.454Z,998.7
2018-03-04T02:25:24.858Z,998.8
2018-03-04T02:26:27.563Z,998.7
2018-03-04T02:27:29.975Z,998.8
2018-03-04T02:28:32.381Z,998.7
2018-03-04T02:29:34.793Z,998.7
2018-03-04T02:30:37.491Z,998.7
2018-03-04T02:31:39.894Z,998.7
2018-03-04T02:32:42.309Z,998.7
2018-03-04T02:33:45.290Z,998.8
2018-03-04T02:34:48.003Z,998.8
2018-03-04T02:35:50.410Z,998.8
2018-03-04T02:36:52.818Z,998.8
2018-03-04T02:37:55.235Z,998.7
2018-03-04T02:38:57.640Z,998.7
2018-03-04T02:40:00.342Z,998.7
2018-03-04T02:41:02.748Z,998.7
2018-03-04T02:42:05.167Z,998.7
2018-03-04T02:43:07.576Z,998.7
2018-03-04T02:44:09.991Z,998.7
2018-03-04T02:45:12.410Z,998.7
2018-03-04T02:46:15.098Z,998.7
2018-03-04T02:47:17.514Z,998.7
2018-03-04T02:48:20.214Z,998.7
2018-03-04T02:49:22.620Z,998.7
2018-03-04T02:50:25.320Z,998.7
2018-03-04T02:51:28.315Z,998.7
2018-03-04T02:52:31.013Z,998.7
2018-03-04T02:53:33.713Z,998.7
2018-03-04T02:54:36.134Z,998.7
2018-03-04T02:55:38.534Z,998.8
2018-03-04T02:56:40.955Z,998.7
2018-03-04T02:57:43.351Z,998.8
2018-03-04T02:58:46.069Z,998.7
2018-03-04T02:59:48.839Z,998.7
2018-03-04T03:00:51.845Z,998.7
2018-03-04T03:01:54.258Z,998.7
2018-03-04T03:02:56.957Z,998.7
2018-03-04T03:03:59.363Z,998.7
2018-03-04T03:05:01.773Z,998.6
2018-03-04T03:06:04.485Z,998.7
2018-03-04T03:07:06.914Z,998.7
2018-03-04T03:08:09.615Z,998.7
2018-03-04T03:09:12.300Z,998.6
2018-03-04T03:10:14.716Z,998.7
2018-03-04T03:11:17.127Z,998.7
2018-03-04T03:12:19.542Z,998.6
2018-03-04T03:13:22.238Z,998.6
2018-03-04T03:14:24.647Z,998.6
2018-03-04T03:15:27.627Z,998.6
2018-03-04T03:16:30.049Z,998.5
2018-03-04T03:17:32.735Z,998.5
2018-03-04T03:18:35.159Z,998.5
2018-03-04T03:19:37.572Z,998.5
2018-03-04T03:20:39.983Z,998.5
2018-03-04T03:21:42.406Z,998.5
2018-03-04T03:22:45.109Z,998.5
2018-03-04T03:23:47.506Z,998.5
2018-03-04T03:24:49.919Z,998.5
2018-03-04T03:25:52.325Z,998.5
2018-03-04T03:26:54.735Z,998.5
2018-03-04T03:27:57.146Z,998.5
2018-03-04T03:28:59.552Z,998.5
2018-03-04T03:30:01.960Z,998.5
2018-03-04T03:31:04.388Z,998.5
2018-03-04T03:32:06.800Z,998.5
2018-03-04T03:33:09.193Z,998.4
2018-03-04T03:34:11.602Z,998.4
2018-03-04T03:35:14.302Z,998.4
2018-03-04T03:36:16.716Z,998.4
2018-03-04T03:37:19.115Z,998.4
2018-03-04T03:38:21.517Z,998.5
2018-03-04T03:39:23.923Z,998.4
2018-03-04T03:40:26.656Z,998.4
2018-03-04T03:41:29.076Z,998.4
2018-03-04T03:42:31.769Z,998.3
2018-03-04T03:43:34.179Z,998.3
2018-03-04T03:44:36.899Z,998.3
2018-03-04T03:45:39.597Z,998.3
2018-03-04T03:46:42.014Z,998.3
2018-03-04T03:47:44.413Z,998.3
2018-03-04T03:48:46.824Z,998.3
2018-03-04T03:49:49.534Z,998.3
2018-03-04T03:50:52.237Z,998.3
2018-03-04T03:51:54.945Z,998.3
2018-03-04T03:52:57.649Z,998.3
2018-03-04T03:54:00.048Z,998.2
2018-03-04T03:55:02.475Z,998.3
2018-03-04T03:56:05.170Z,998.2
2018-03-04T03:57:07.567Z,998.2
2018-03-04T03:58:10.294Z,998.2
2018-03-04T03:59:12.705Z,998.2
2018-03-04T04:00:15.113Z,998.1
2018-03-04T04:01:17.534Z,998.2
2018-03-04T04:02:19.945Z,998.1
2018-03-04T04:03:22.643Z,998.1
2018-03-04T04:04:25.044Z,998.2
2018-03-04T04:05:28.035Z,998.1
2018-03-04T04:06:30.767Z,998.2
2018-03-04T04:07:33.176Z,998.1
2018-03-04T04:08:35.587Z,998.1
2018-03-04T04:09:37.992Z,998.2
2018-03-04T04:10:40.404Z,998.1
2018-03-04T04:11:42.818Z,998.1
2018-03-04T04:12:45.230Z,998.1
2018-03-04T04:13:47.626Z,998
2018-03-04T04:14:50.036Z,998
2018-03-04T04:15:52.442Z,998
2018-03-04T04:16:54.847Z,998
2018-03-04T04:17:57.259Z,998
2018-03-04T04:18:59.659Z,998
2018-03-04T04:20:02.672Z,998
2018-03-04T04:21:05.092Z,998
2018-03-04T04:22:07.780Z,998
2018-03-04T04:23:10.189Z,998
2018-03-04T04:24:12.592Z,998
2018-03-04T04:25:15.008Z,998
2018-03-04T04:26:17.426Z,998
2018-03-04T04:27:20.125Z,998
2018-03-04T04:28:22.517Z,998
2018-03-04T04:29:24.934Z,998
2018-03-04T04:30:27.344Z,998
2018-03-04T04:31:29.751Z,998
2018-03-04T04:32:32.454Z,998
2018-03-04T04:33:34.866Z,998
2018-03-04T04:34:37.575Z,998
2018-03-04T04:35:39.991Z,998
2018-03-04T04:36:42.405Z,997.9
2018-03-04T04:37:44.801Z,997.9
2018-03-04T04:38:47.213Z,997.9
2018-03-04T04:39:49.612Z,997.9
2018-03-04T04:40:52.032Z,997.9
2018-03-04T04:41:54.728Z,997.8
2018-03-04T04:42:57.420Z,997.8
2018-03-04T04:43:59.830Z,997.9
2018-03-04T04:45:02.249Z,997.8
2018-03-04T04:46:04.652Z,997.8
2018-03-04T04:47:07.072Z,997.7
2018-03-04T04:48:09.479Z,997.7
2018-03-04T04:49:11.886Z,997.7
2018-03-04T04:50:14.296Z,997.7
2018-03-04T04:51:16.706Z,997.7
2018-03-04T04:52:19.112Z,997.7
2018-03-04T04:53:21.523Z,997.7
2018-03-04T04:54:23.920Z,997.7
2018-03-04T04:55:26.330Z,997.6
2018-03-04T04:56:28.744Z,997.6
2018-03-04T04:57:31.155Z,997.7
2018-03-04T04:58:33.562Z,997.7
2018-03-04T04:59:35.975Z,997.7
2018-03-04T05:00:38.383Z,997.7
2018-03-04T05:01:41.084Z,997.7
2018-03-04T05:02:43.492Z,997.7
2018-03-04T05:03:46.220Z,997.7
2018-03-04T05:04:48.904Z,997.6
2018-03-04T05:05:51.607Z,997.7
2018-03-04T05:06:54.024Z,997.6
2018-03-04T05:07:56.715Z,997.6
2018-03-04T05:08:59.130Z,997.6
2018-03-04T05:10:01.836Z,997.5
2018-03-04T05:11:04.236Z,997.6
2018-03-04T05:12:06.649Z,997.6
2018-03-04T05:13:09.067Z,997.6
2018-03-04T05:14:11.476Z,997.6
2018-03-04T05:15:14.179Z,997.5
2018-03-04T05:16:16.640Z,997.5
2018-03-04T05:17:19.002Z,997.5
2018-03-04T05:18:21.408Z,997.6
2018-03-04T05:19:23.819Z,997.5
2018-03-04T05:20:26.220Z,997.6
2018-03-04T05:21:28.625Z,997.6
2018-03-04T05:22:31.331Z,997.5
2018-03-04T05:23:33.734Z,997.5
2018-03-04T05:24:36.139Z,997.6
2018-03-04T05:25:38.546Z,997.6
2018-03-04T05:26:40.960Z,997.5
2018-03-04T05:27:43.381Z,997.5
2018-03-04T05:28:45.797Z,997.5
2018-03-04T05:29:48.474Z,997.5
2018-03-04T05:30:50.893Z,997.5
2018-03-04T05:31:53.296Z,997.5
2018-03-04T05:32:55.705Z,997.5
2018-03-04T05:33:58.114Z,997.5
2018-03-04T05:35:00.830Z,997.5
2018-03-04T05:36:03.235Z,997.5
2018-03-04T05:37:05.638Z,997.5
2018-03-04T05:38:08.053Z,997.5
2018-03-04T05:39:10.461Z,997.5
2018-03-04T05:40:13.167Z,997.5
2018-03-04T05:41:15.872Z,997.5
2018-03-04T05:42:18.267Z,997.5
2018-03-04T05:43:20.682Z,997.5
2018-03-04T05:44:23.088Z,997.5
2018-03-04T05:45:25.501Z,997.5
2018-03-04T05:46:27.919Z,997.5
2018-03-04T05:47:30.321Z,997.5
2018-03-04T05:48:33.293Z,997.5
2018-03-04T05:49:35.709Z,997.4
2018-03-04T05:50:38.110Z,997.4
2018-03-04T05:51:40.816Z,997.5
2018-03-04T05:52:43.232Z,997.5
2018-03-04T05:53:45.623Z,997.5
2018-03-04T05:54:48.030Z,997.5
2018-03-04T05:55:50.747Z,997.5
2018-03-04T05:56:53.153Z,997.5
2018-03-04T05:57:55.571Z,997.5
2018-03-04T05:58:57.975Z,997.4
2018-03-04T06:00:00.394Z,997.4
2018-03-04T06:01:03.077Z,997.5
2018-03-04T06:02:05.487Z,997.4
2018-03-04T06:03:07.893Z,997.5
2018-03-04T06:04:10.306Z,997.4
2018-03-04T06:05:13.003Z,997.4
2018-03-04T06:06:15.702Z,997.4
2018-03-04T06:07:18.109Z,997.4
2018-03-04T06:08:20.538Z,997.3
2018-03-04T06:09:23.529Z,997.3
2018-03-04T06:10:25.932Z,997.4
2018-03-04T06:11:28.338Z,997.3
2018-03-04T06:12:30.748Z,997.3
2018-03-04T06:13:33.154Z,997.3
2018-03-04T06:14:35.569Z,997.3
2018-03-04T06:15:37.967Z,997.3
2018-03-04T06:16:40.666Z,997.3
2018-03-04T06:17:43.369Z,997.2
2018-03-04T06:18:45.769Z,997.3
2018-03-04T06:19:48.484Z,997.3
2018-03-04T06:20:50.888Z,997.3
2018-03-04T06:21:53.302Z,997.3
2018-03-04T06:22:55.710Z,997.3
2018-03-04T06:23:58.122Z,997.3
2018-03-04T06:25:00.542Z,997.3
2018-03-04T06:26:02.950Z,997.3
2018-03-04T06:27:05.361Z,997.4
2018-03-04T06:28:08.057Z,997.3
2018-03-04T06:29:10.462Z,997.3
2018-03-04T06:30:12.879Z,997.3
2018-03-04T06:31:15.560Z,997.3
2018-03-04T06:32:18.285Z,997.3
2018-03-04T06:33:20.697Z,997.3
2018-03-04T06:34:23.101Z,997.3
2018-03-04T06:35:25.507Z,997.4
2018-03-04T06:36:27.921Z,997.3
2018-03-04T06:37:30.905Z,997.3
2018-03-04T06:38:33.306Z,997.3
2018-03-04T06:39:35.718Z,997.4
2018-03-04T06:40:38.120Z,997.3
2018-03-04T06:41:40.547Z,997.3
2018-03-04T06:42:42.956Z,997.3
2018-03-04T06:43:45.357Z,997.3
2018-03-04T06:44:48.053Z,997.3
2018-03-04T06:45:50.769Z,997.4
2018-03-04T06:46:53.183Z,997.4
2018-03-04T06:47:55.587Z,997.4
2018-03-04T06:48:58.019Z,997.4
2018-03-04T06:50:00.722Z,997.3
2018-03-04T06:51:03.141Z,997.3
2018-03-04T06:52:05.548Z,997.3
2018-03-04T06:53:07.958Z,997.3
2018-03-04T06:54:10.369Z,997.3
2018-03-04T06:55:12.775Z,997.3
2018-03-04T06:56:15.189Z,997.2
2018-03-04T06:57:17.594Z,997.3
2018-03-04T06:58:21.063Z,997.2
2018-03-04T06:59:23.716Z,997.2
2018-03-04T07:00:26.306Z,997.2
2018-03-04T07:01:29.628Z,997.2
2018-03-04T07:02:32.547Z,997.1
2018-03-04T07:03:36.346Z,997.1
2018-03-04T07:04:38.769Z,997.2
2018-03-04T07:05:41.164Z,997
2018-03-04T07:06:44.164Z,997.1
2018-03-04T07:07:46.560Z,997.2
2018-03-04T07:08:48.972Z,997
2018-03-04T07:09:51.383Z,997.1
2018-03-04T07:10:53.791Z,997
2018-03-04T07:11:56.507Z,997.1
2018-03-04T07:12:58.927Z,997.1
2018-03-04T07:14:01.341Z,997
2018-03-04T07:15:04.350Z,997
2018-03-04T07:16:07.043Z,997
2018-03-04T07:17:09.457Z,997
2018-03-04T07:18:11.856Z,997
2018-03-04T07:19:14.279Z,996.9
2018-03-04T07:20:16.681Z,997
2018-03-04T07:21:19.692Z,996.9
2018-03-04T07:22:22.095Z,997
2018-03-04T07:23:24.793Z,997
2018-03-04T07:24:27.200Z,997
2018-03-04T07:25:29.912Z,997
2018-03-04T07:26:32.313Z,996.9
2018-03-04T07:27:34.725Z,996.9
2018-03-04T07:28:37.144Z,996.9
2018-03-04T07:29:39.603Z,997
2018-03-04T07:30:41.962Z,997
2018-03-04T07:31:44.385Z,996.9
2018-03-04T07:32:46.797Z,997
2018-03-04T07:33:49.213Z,997
2018-03-04T07:34:51.911Z,996.9
2018-03-04T07:35:54.601Z,997
2018-03-04T07:36:57.321Z,997
2018-03-04T07:37:59.734Z,997
2018-03-04T07:39:02.142Z,997
2018-03-04T07:40:04.559Z,997
2018-03-04T07:41:06.974Z,997
2018-03-04T07:42:09.678Z,997
2018-03-04T07:43:12.098Z,997
2018-03-04T07:44:14.517Z,997
2018-03-04T07:45:17.216Z,997
2018-03-04T07:46:19.938Z,996.9
2018-03-04T07:47:22.352Z,996.9
2018-03-04T07:48:24.767Z,996.9
2018-03-04T07:49:27.175Z,996.9
2018-03-04T07:50:29.601Z,997
2018-03-04T07:51:32.000Z,997
2018-03-04T07:52:34.513Z,997
2018-03-04T07:53:36.831Z,997
2018-03-04T07:54:39.250Z,996.9
2018-03-04T07:55:41.664Z,997
2018-03-04T07:56:44.086Z,996.9
2018-03-04T07:57:46.496Z,996.9
2018-03-04T07:58:48.910Z,996.9
2018-03-04T07:59:51.353Z,996.9
2018-03-04T08:00:53.771Z,996.9
2018-03-04T08:01:56.187Z,996.9
2018-03-04T08:02:58.603Z,996.9
2018-03-04T08:04:01.007Z,996.8
2018-03-04T08:05:03.420Z,996.9
2018-03-04T08:06:05.840Z,996.8
2018-03-04T08:07:08.240Z,996.9
2018-03-04T08:08:10.660Z,996.9
2018-03-04T08:09:13.067Z,996.9
2018-03-04T08:10:15.785Z,996.8
2018-03-04T08:11:18.205Z,996.8
2018-03-04T08:12:20.609Z,996.8
2018-03-04T08:13:23.023Z,996.8
2018-03-04T08:14:25.441Z,996.8
2018-03-04T08:15:28.155Z,996.8
2018-03-04T08:16:30.551Z,996.8
2018-03-04T08:17:32.962Z,996.8
2018-03-04T08:18:35.428Z,996.8
2018-03-04T08:19:37.790Z,996.9
2018-03-04T08:20:40.201Z,996.8
2018-03-04T08:21:42.609Z,996.8
2018-03-04T08:22:45.021Z,996.9
2018-03-04T08:23:47.443Z,996.9
2018-03-04T08:24:49.856Z,996.9
2018-03-04T08:25:52.260Z,996.9
2018-03-04T08:26:54.674Z,996.9
2018-03-04T08:27:57.092Z,996.9
2018-03-04T08:28:59.496Z,996.9
2018-03-04T08:30:02.194Z,996.9
2018-03-04T08:31:04.611Z,996.9
2018-03-04T08:32:07.016Z,996.9
2018-03-04T08:33:09.433Z,997
2018-03-04T08:34:11.845Z,997
2018-03-04T08:35:14.278Z,997
2018-03-04T08:36:16.685Z,996.9
2018-03-04T08:37:19.098Z,996.9
2018-03-04T08:38:21.509Z,996.9
2018-03-04T08:39:23.922Z,996.9
2018-03-04T08:40:26.905Z,996.9
2018-03-04T08:41:29.323Z,996.8
2018-03-04T08:42:31.723Z,996.8
2018-03-04T08:43:34.130Z,996.8
2018-03-04T08:44:36.541Z,996.7
2018-03-04T08:45:38.963Z,996.7
2018-03-04T08:46:41.368Z,996.7
2018-03-04T08:47:43.776Z,996.7
2018-03-04T08:48:46.183Z,996.7
2018-03-04T08:49:48.599Z,996.8
2018-03-04T08:50:51.014Z,996.8
2018-03-04T08:51:53.425Z,996.7
2018-03-04T08:52:56.125Z,996.8
2018-03-04T08:53:58.540Z,996.8
2018-03-04T08:55:00.952Z,996.8
2018-03-04T08:56:03.374Z,996.8
2018-03-04T08:57:05.782Z,996.7
2018-03-04T08:58:08.191Z,996.6
2018-03-04T08:59:10.609Z,996.6
2018-03-04T09:00:13.021Z,996.7
2018-03-04T09:01:15.432Z,996.6
2018-03-04T09:02:17.859Z,996.5
2018-03-04T09:03:20.558Z,996.6
2018-03-04T09:04:23.261Z,996.6
2018-03-04T09:05:25.990Z,996.5
2018-03-04T09:06:28.672Z,996.6
2018-03-04T09:07:31.093Z,996.5
2018-03-04T09:08:33.501Z,996.6
2018-03-04T09:09:35.970Z,996.6
2018-03-04T09:10:38.331Z,996.6
2018-03-04T09:11:40.740Z,996.5
2018-03-04T09:12:43.142Z,996.6
2018-03-04T09:13:45.567Z,996.5
2018-03-04T09:14:48.007Z,996.6
2018-03-04T09:15:50.398Z,996.5
2018-03-04T09:16:52.809Z,996.6
2018-03-04T09:17:55.209Z,996.6
2018-03-04T09:18:57.912Z,996.5
2018-03-04T09:20:00.328Z,996.5
2018-03-04T09:21:03.022Z,996.5
2018-03-04T09:22:05.441Z,996.4
2018-03-04T09:23:07.864Z,996.4
2018-03-04T09:24:10.274Z,996.2
2018-03-04T09:25:12.694Z,996.4
2018-03-04T09:26:15.107Z,996.4
2018-03-04T09:27:17.516Z,996.3
2018-03-04T09:28:19.932Z,996.3
2018-03-04T09:29:22.346Z,996.3
2018-03-04T09:30:24.772Z,996.3
2018-03-04T09:31:27.193Z,996.3
2018-03-04T09:32:29.917Z,996.3
2018-03-04T09:33:32.336Z,996.3
2018-03-04T09:34:34.756Z,996.4
2018-03-04T09:35:37.164Z,996.4
2018-03-04T09:36:39.587Z,996.3
2018-03-04T09:37:41.984Z,996.4
2018-03-04T09:38:44.394Z,996.4
2018-03-04T09:39:46.828Z,996.3
2018-03-04T09:40:49.247Z,996.3
2018-03-04T09:41:51.665Z,996.3
2018-03-04T09:42:54.087Z,996.4
2018-03-04T09:43:56.501Z,996.3
2018-03-04T09:44:58.929Z,996.3
2018-03-04T09:46:01.347Z,996.3
2018-03-04T09:47:03.756Z,996.3
2018-03-04T09:48:06.191Z,996.4
2018-03-04T09:49:08.594Z,996.2
2018-03-04T09:50:11.017Z,996.3
2018-03-04T09:51:13.444Z,996.3
2018-03-04T09:52:15.856Z,996.2
2018-03-04T09:53:18.276Z,996.3
2018-03-04T09:54:20.995Z,996.2
2018-03-04T09:55:23.412Z,996.3
2018-03-04T09:56:25.824Z,996.3
2018-03-04T09:57:28.244Z,996.2
2018-03-04T09:58:30.671Z,996.3
2018-03-04T09:59:33.094Z,996.2
2018-03-04T10:00:35.523Z,996.3
2018-03-04T10:01:38.245Z,996.3
2018-03-04T10:02:40.669Z,996.3
2018-03-04T10:03:43.373Z,996.2
2018-03-04T10:04:45.806Z,996.2
2018-03-04T10:05:48.219Z,996.3
2018-03-04T10:06:50.648Z,996.2
2018-03-04T10:07:53.350Z,996.1
2018-03-04T10:08:55.768Z,996.2
2018-03-04T10:09:58.191Z,996.1
2018-03-04T10:11:00.622Z,996.2
2018-03-04T10:12:03.028Z,996.1
2018-03-04T10:13:05.449Z,996.1
2018-03-04T10:14:08.178Z,996.2
2018-03-04T10:15:10.607Z,996.2
2018-03-04T10:16:13.036Z,996.2
2018-03-04T10:17:15.464Z,996.3
2018-03-04T10:18:17.872Z,996.3
2018-03-04T10:19:20.311Z,996.2
2018-03-04T10:20:22.785Z,996.1
2018-03-04T10:21:25.161Z,996.1
2018-03-04T10:22:27.583Z,996.1
2018-03-04T10:23:30.005Z,996.1
2018-03-04T10:24:32.421Z,996.2
2018-03-04T10:25:34.860Z,996
2018-03-04T10:26:37.285Z,996
2018-03-04T10:27:39.722Z,996
2018-03-04T10:28:42.156Z,995.9
2018-03-04T10:29:44.559Z,995.8
2018-03-04T10:30:46.981Z,995.8
2018-03-04T10:31:49.696Z,995.8
2018-03-04T10:32:52.120Z,995.8
2018-03-04T10:33:54.542Z,995.8
2018-03-04T10:34:56.963Z,995.8
2018-03-04T10:35:59.675Z,995.8
2018-03-04T10:37:02.112Z,995.8
2018-03-04T10:38:04.541Z,995.8
2018-03-04T10:39:06.973Z,995.7
2018-03-04T10:40:09.396Z,995.8
2018-03-04T10:41:11.831Z,995.7
2018-03-04T10:42:14.268Z,995.8
2018-03-04T10:43:16.980Z,995.7
2018-03-04T10:44:19.391Z,995.7
2018-03-04T10:45:21.830Z,995.6
2018-03-04T10:46:24.261Z,995.7
2018-03-04T10:47:26.691Z,995.6
2018-03-04T10:48:29.113Z,995.7
2018-03-04T10:49:31.533Z,995.6
2018-03-04T10:50:33.952Z,995.7
2018-03-04T10:51:36.396Z,995.7
2018-03-04T10:52:38.819Z,995.6
2018-03-04T10:53:41.541Z,995.6
2018-03-04T10:54:43.972Z,995.5
2018-03-04T10:55:46.397Z,995.5
2018-03-04T10:56:48.826Z,995.6
2018-03-04T10:57:51.550Z,995.5
2018-03-04T10:58:53.978Z,995.5
2018-03-04T10:59:56.405Z,995.5
2018-03-04T11:00:58.827Z,995.5
2018-03-04T11:02:01.247Z,995.5
2018-03-04T11:03:03.694Z,995.5
2018-03-04T11:04:06.114Z,995.5
2018-03-04T11:05:08.547Z,995.6
2018-03-04T11:06:11.546Z,995.6
2018-03-04T11:07:14.262Z,995.5
2018-03-04T11:08:16.976Z,995.5
2018-03-04T11:09:19.408Z,995.5
2018-03-04T11:10:21.824Z,995.5
2018-03-04T11:11:24.257Z,995.5
2018-03-04T11:12:26.687Z,995.4
2018-03-04T11:13:29.120Z,995.5
2018-03-04T11:14:31.838Z,995.4
2018-03-04T11:15:34.266Z,995.4
2018-03-04T11:16:36.979Z,995.5
2018-03-04T11:17:39.421Z,995.4
2018-03-04T11:18:41.836Z,995.4
2018-03-04T11:19:44.263Z,995.5
2018-03-04T11:20:46.689Z,995.5
2018-03-04T11:21:49.125Z,995.5
2018-03-04T11:22:51.842Z,995.5
2018-03-04T11:23:54.275Z,995.5
2018-03-04T11:24:56.972Z,995.5
2018-03-04T11:25:59.692Z,995.5
2018-03-04T11:27:02.133Z,995.3
2018-03-04T11:28:05.434Z,995.5
2018-03-04T11:29:07.862Z,995.4
2018-03-04T11:30:10.286Z,995.4
2018-03-04T11:31:12.996Z,995.5
2018-03-04T11:32:15.421Z,995.4
2018-03-04T11:33:17.857Z,995.4
2018-03-04T11:34:20.285Z,995.3
2018-03-04T11:35:22.723Z,995.4
2018-03-04T11:36:25.152Z,995.4
2018-03-04T11:37:27.579Z,995.3
2018-03-04T11:38:30.291Z,995.3
2018-03-04T11:39:33.045Z,995.3
2018-03-04T11:40:35.459Z,995.3
2018-03-04T11:41:37.897Z,995.3
2018-03-04T11:42:40.601Z,995.4
2018-03-04T11:43:43.036Z,995.4
2018-03-04T11:44:45.460Z,995.3
2018-03-04T11:45:47.889Z,995.3
2018-03-04T11:46:50.311Z,995.3
2018-03-04T11:47:52.742Z,995.3
2018-03-04T11:48:55.164Z,995.3
2018-03-04T11:49:57.601Z,995.3
2018-03-04T11:51:00.035Z,995.2
2018-03-04T11:52:02.469Z,995.2
2018-03-04T11:53:04.893Z,995.2
2018-03-04T11:54:07.330Z,995.2
2018-03-04T11:55:09.753Z,995.2
2018-03-04T11:56:12.191Z,995.1
2018-03-04T11:57:14.612Z,995.2
2018-03-04T11:58:17.046Z,995.1
2018-03-04T11:59:19.768Z,995.1
2018-03-04T12:00:22.177Z,995.1
2018-03-04T12:01:24.606Z,995
2018-03-04T12:02:27.043Z,995
2018-03-04T12:03:29.469Z,995
2018-03-04T12:04:31.900Z,995
2018-03-04T12:05:34.321Z,995
2018-03-04T12:06:36.750Z,995
2018-03-04T12:07:39.183Z,995
2018-03-04T12:08:41.609Z,994.9
2018-03-04T12:09:44.056Z,995
2018-03-04T12:10:46.465Z,994.9
2018-03-04T12:11:48.898Z,994.9
2018-03-04T12:12:51.335Z,995
2018-03-04T12:13:53.770Z,995
2018-03-04T12:14:56.477Z,995
2018-03-04T12:15:58.905Z,994.9
2018-03-04T12:17:01.340Z,995
2018-03-04T12:18:04.560Z,994.9
2018-03-04T12:19:07.844Z,994.9
2018-03-04T12:20:11.422Z,994.9
2018-03-04T12:21:15.254Z,994.8
2018-03-04T12:22:18.721Z,994.8
2018-03-04T12:23:21.437Z,994.9
2018-03-04T12:24:23.855Z,994.9
2018-03-04T12:25:26.648Z,994.9
2018-03-04T12:26:29.644Z,995
2018-03-04T12:27:32.077Z,994.9
2018-03-04T12:28:34.512Z,994.9
2018-03-04T12:29:36.950Z,994.9
2018-03-04T12:30:39.389Z,994.9
2018-03-04T12:31:41.823Z,994.9
2018-03-04T12:32:44.246Z,994.9
2018-03-04T12:33:47.801Z,994.8
2018-03-04T12:34:52.539Z,994.9
2018-03-04T12:35:55.619Z,994.9
2018-03-04T12:36:58.995Z,994.8
2018-03-04T12:38:03.353Z,994.8
2018-03-04T12:39:06.821Z,994.8
2018-03-04T12:40:09.765Z,994.8
2018-03-04T12:41:16.501Z,994.8
2018-03-04T12:42:19.277Z,994.7
2018-03-04T12:43:21.903Z,994.7
2018-03-04T12:44:24.749Z,994.7
2018-03-04T12:45:27.194Z,994.6
2018-03-04T12:46:29.627Z,994.6
2018-03-04T12:47:32.068Z,994.6
2018-03-04T12:48:34.496Z,994.7
2018-03-04T12:49:37.522Z,994.6
2018-03-04T12:50:39.942Z,994.6
2018-03-04T12:51:42.370Z,994.5
2018-03-04T12:52:45.102Z,994.5
2018-03-04T12:53:47.531Z,994.6
2018-03-04T12:54:49.956Z,994.5
2018-03-04T12:55:52.397Z,994.5
2018-03-04T12:56:54.827Z,994.5
2018-03-04T12:57:57.246Z,994.5
2018-03-04T12:58:59.687Z,994.4
2018-03-04T13:00:02.121Z,994.4
2018-03-04T13:01:04.836Z,994.5
2018-03-04T13:02:07.554Z,994.5
2018-03-04T13:03:09.982Z,994.5
2018-03-04T13:04:12.406Z,994.3
2018-03-04T13:05:14.853Z,994.4
2018-03-04T13:06:17.280Z,994.4
2018-03-04T13:07:19.704Z,994.4
2018-03-04T13:08:22.141Z,994.4
2018-03-04T13:09:24.845Z,994.4
2018-03-04T13:10:27.278Z,994.4
2018-03-04T13:11:29.704Z,994.4
2018-03-04T13:12:32.128Z,994.4
2018-03-04T13:13:34.561Z,994.4
2018-03-04T13:14:36.989Z,994.3
2018-03-04T13:15:39.462Z,994.4
2018-03-04T13:16:41.848Z,994.3
2018-03-04T13:17:44.279Z,994.3
2018-03-04T13:18:46.705Z,994.3
2018-03-04T13:19:49.140Z,994.3
2018-03-04T13:20:51.851Z,994.3
2018-03-04T13:21:54.281Z,994.2
2018-03-04T13:22:57.020Z,994.2
2018-03-04T13:23:59.457Z,994.2
2018-03-04T13:25:01.906Z,994.2
2018-03-04T13:26:04.336Z,994.1
2018-03-04T13:27:06.772Z,994.1
2018-03-04T13:28:09.208Z,994.1
2018-03-04T13:29:11.628Z,994.1
2018-03-04T13:30:14.346Z,994.1
2018-03-04T13:31:17.365Z,994.1
2018-03-04T13:32:19.782Z,994.2